sensor_id;sensor_type;location;lat;lon;timestamp;temperature;humidity
16523;DHT22;19889;52.546;13.348;2022-10-22T00:00:29;15.60;99.90
16523;DHT22;19889;52.546;13.348;2022-10-22T00:02:56;15.60;99.90
16523;DHT22;19889;52.546;13.348;2022-10-22T00:05:22;15.50;99.90
16523;DHT22;19889;52.546;13.348;2022-10-22T00:07:49;15.60;99.90
16523;DHT22;19889;52.546;13.348;2022-10-22T00:10:16;15.50;99.90
16523;DHT22;19889;52.546;13.348;2022-10-22T00:12:43;15.60;99.90
16523;DHT22;19889;52.546;13.348;2022-10-22T00:15:12;15.60;99.90
16523;DHT22;19889;52.546;13.348;2022-10-22T00:17:38;15.60;99.90
16523;DHT22;19889;52.546;13.348;2022-10-22T00:20:06;15.50;99.90
16523;DHT22;19889;52.546;13.348;2022-10-22T00:22:33;15.50;99.90
16523;DHT22;19889;52.546;13.348;2022-10-22T00:25:00;15.50;99.90
16523;DHT22;19889;52.546;13.348;2022-10-22T00:27:26;15.50;99.90
16523;DHT22;19889;52.546;13.348;2022-10-22T00:29:53;15.50;99.90
16523;DHT22;19889;52.546;13.348;2022-10-22T00:32:21;15.50;99.90
16523;DHT22;19889;52.546;13.348;2022-10-22T00:34:48;15.50;99.90
16523;DHT22;19889;52.546;13.348;2022-10-22T00:37:15;15.50;99.90
16523;DHT22;19889;52.546;13.348;2022-10-22T00:39:42;15.50;99.90
16523;DHT22;19889;52.546;13.348;2022-10-22T00:42:12;15.50;99.90
16523;DHT22;19889;52.546;13.348;2022-10-22T00:45:15;15.50;99.90
16523;DHT22;19889;52.546;13.348;2022-10-22T00:47:47;15.50;99.90
16523;DHT22;19889;52.546;13.348;2022-10-22T00:50:18;15.50;99.90
16523;DHT22;19889;52.546;13.348;2022-10-22T00:52:47;15.50;99.90
16523;DHT22;19889;52.546;13.348;2022-10-22T00:55:14;15.50;99.90
16523;DHT22;19889;52.546;13.348;2022-10-22T00:57:41;15.50;99.90
16523;DHT22;19889;52.546;13.348;2022-10-22T01:00:09;15.60;99.90
16523;DHT22;19889;52.546;13.348;2022-10-22T01:02:36;15.60;99.90
16523;DHT22;19889;52.546;13.348;2022-10-22T01:05:04;15.60;99.90
16523;DHT22;19889;52.546;13.348;2022-10-22T01:07:35;15.60;99.90
16523;DHT22;19889;52.546;13.348;2022-10-22T01:10:07;15.50;99.90
16523;DHT22;19889;52.546;13.348;2022-10-22T01:12:44;15.60;99.90
16523;DHT22;19889;52.546;13.348;2022-10-22T01:15:20;15.60;99.90
16523;DHT22;19889;52.546;13.348;2022-10-22T01:17:54;15.60;99.90
16523;DHT22;19889;52.546;13.348;2022-10-22T01:20:48;15.60;99.90
16523;DHT22;19889;52.546;13.348;2022-10-22T01:23:32;15.60;99.90
16523;DHT22;19889;52.546;13.348;2022-10-22T01:26:05;15.60;99.90
16523;DHT22;19889;52.546;13.348;2022-10-22T01:28:52;15.60;99.90
16523;DHT22;19889;52.546;13.348;2022-10-22T01:31:22;15.60;99.90
16523;DHT22;19889;52.546;13.348;2022-10-22T01:33:52;15.60;99.90
16523;DHT22;19889;52.546;13.348;2022-10-22T01:36:20;15.60;99.90
16523;DHT22;19889;52.546;13.348;2022-10-22T01:38:49;15.60;99.90
16523;DHT22;19889;52.546;13.348;2022-10-22T01:41:16;15.60;99.90
16523;DHT22;19889;52.546;13.348;2022-10-22T01:43:43;15.60;99.90
16523;DHT22;19889;52.546;13.348;2022-10-22T01:46:11;15.60;99.90
16523;DHT22;19889;52.546;13.348;2022-10-22T01:48:47;15.60;99.90
16523;DHT22;19889;52.546;13.348;2022-10-22T01:51:29;15.50;99.90
16523;DHT22;19889;52.546;13.348;2022-10-22T01:54:02;15.50;99.90
16523;DHT22;19889;52.546;13.348;2022-10-22T01:56:44;15.60;99.90
16523;DHT22;19889;52.546;13.348;2022-10-22T01:59:18;15.50;99.90
16523;DHT22;19889;52.546;13.348;2022-10-22T02:01:54;15.50;99.90
16523;DHT22;19889;52.546;13.348;2022-10-22T02:04:27;15.50;99.90
16523;DHT22;19889;52.546;13.348;2022-10-22T02:06:59;15.50;99.90
16523;DHT22;19889;52.546;13.348;2022-10-22T02:09:28;15.60;99.90
16523;DHT22;19889;52.546;13.348;2022-10-22T02:11:57;15.50;99.90
16523;DHT22;19889;52.546;13.348;2022-10-22T02:14:27;15.50;99.90
16523;DHT22;19889;52.546;13.348;2022-10-22T02:16:57;15.50;99.90
16523;DHT22;19889;52.546;13.348;2022-10-22T02:19:27;15.50;99.90
16523;DHT22;19889;52.546;13.348;2022-10-22T02:21:55;15.50;99.90
16523;DHT22;19889;52.546;13.348;2022-10-22T02:24:23;15.50;99.90
16523;DHT22;19889;52.546;13.348;2022-10-22T02:26:56;15.50;99.90
16523;DHT22;19889;52.546;13.348;2022-10-22T02:29:26;15.50;99.90
16523;DHT22;19889;52.546;13.348;2022-10-22T02:31:57;15.50;99.90
16523;DHT22;19889;52.546;13.348;2022-10-22T02:34:30;15.50;99.90
16523;DHT22;19889;52.546;13.348;2022-10-22T02:36:57;15.50;99.90
16523;DHT22;19889;52.546;13.348;2022-10-22T02:39:25;15.40;99.90
16523;DHT22;19889;52.546;13.348;2022-10-22T02:41:52;15.40;99.90
16523;DHT22;19889;52.546;13.348;2022-10-22T02:44:20;15.40;99.90
16523;DHT22;19889;52.546;13.348;2022-10-22T02:46:48;15.40;99.90
16523;DHT22;19889;52.546;13.348;2022-10-22T02:49:16;15.40;99.90
16523;DHT22;19889;52.546;13.348;2022-10-22T02:51:43;15.40;99.90
16523;DHT22;19889;52.546;13.348;2022-10-22T02:54:10;15.40;99.90
16523;DHT22;19889;52.546;13.348;2022-10-22T02:56:36;15.40;99.90
16523;DHT22;19889;52.546;13.348;2022-10-22T02:59:03;15.40;99.90
16523;DHT22;19889;52.546;13.348;2022-10-22T03:01:30;15.40;99.90
16523;DHT22;19889;52.546;13.348;2022-10-22T03:03:57;15.30;99.90
16523;DHT22;19889;52.546;13.348;2022-10-22T03:06:25;15.40;99.90
16523;DHT22;19889;52.546;13.348;2022-10-22T03:08:52;15.40;99.90
16523;DHT22;19889;52.546;13.348;2022-10-22T03:11:19;15.40;99.90
16523;DHT22;19889;52.546;13.348;2022-10-22T03:13:45;15.40;99.90
16523;DHT22;19889;52.546;13.348;2022-10-22T03:16:12;15.30;99.90
16523;DHT22;19889;52.546;13.348;2022-10-22T03:18:39;15.40;99.90
16523;DHT22;19889;52.546;13.348;2022-10-22T03:21:10;15.40;99.90
16523;DHT22;19889;52.546;13.348;2022-10-22T03:23:40;15.30;99.90
16523;DHT22;19889;52.546;13.348;2022-10-22T03:26:08;15.40;99.90
16523;DHT22;19889;52.546;13.348;2022-10-22T03:28:36;15.40;99.90
16523;DHT22;19889;52.546;13.348;2022-10-22T03:31:03;15.40;99.90
16523;DHT22;19889;52.546;13.348;2022-10-22T03:33:30;15.40;99.90
16523;DHT22;19889;52.546;13.348;2022-10-22T03:35:57;15.40;99.90
16523;DHT22;19889;52.546;13.348;2022-10-22T03:38:24;15.30;99.90
16523;DHT22;19889;52.546;13.348;2022-10-22T03:40:53;15.40;99.90
16523;DHT22;19889;52.546;13.348;2022-10-22T03:43:19;15.40;99.90
16523;DHT22;19889;52.546;13.348;2022-10-22T03:45:46;15.40;99.90
16523;DHT22;19889;52.546;13.348;2022-10-22T03:48:13;15.40;99.90
16523;DHT22;19889;52.546;13.348;2022-10-22T03:50:39;15.40;99.90
16523;DHT22;19889;52.546;13.348;2022-10-22T03:53:06;15.40;99.90
16523;DHT22;19889;52.546;13.348;2022-10-22T03:55:35;15.40;99.90
16523;DHT22;19889;52.546;13.348;2022-10-22T03:58:04;15.30;99.90
16523;DHT22;19889;52.546;13.348;2022-10-22T04:00:31;15.30;99.90
16523;DHT22;19889;52.546;13.348;2022-10-22T04:02:58;15.40;99.90
16523;DHT22;19889;52.546;13.348;2022-10-22T04:05:25;15.40;99.90
16523;DHT22;19889;52.546;13.348;2022-10-22T04:07:51;15.30;99.90
16523;DHT22;19889;52.546;13.348;2022-10-22T04:10:18;15.30;99.90
16523;DHT22;19889;52.546;13.348;2022-10-22T04:12:46;15.30;99.90
16523;DHT22;19889;52.546;13.348;2022-10-22T04:15:14;15.30;99.90
16523;DHT22;19889;52.546;13.348;2022-10-22T04:17:41;15.30;99.90
16523;DHT22;19889;52.546;13.348;2022-10-22T04:20:09;15.30;99.90
16523;DHT22;19889;52.546;13.348;2022-10-22T04:22:36;15.30;99.90
16523;DHT22;19889;52.546;13.348;2022-10-22T04:25:04;15.30;99.90
16523;DHT22;19889;52.546;13.348;2022-10-22T04:27:32;15.30;99.90
16523;DHT22;19889;52.546;13.348;2022-10-22T04:29:59;15.30;99.90
16523;DHT22;19889;52.546;13.348;2022-10-22T04:32:27;15.30;99.90
16523;DHT22;19889;52.546;13.348;2022-10-22T04:34:54;15.30;99.90
16523;DHT22;19889;52.546;13.348;2022-10-22T04:37:20;15.30;99.90
16523;DHT22;19889;52.546;13.348;2022-10-22T04:39:48;15.00;99.90
16523;DHT22;19889;52.546;13.348;2022-10-22T04:42:14;15.30;99.90
16523;DHT22;19889;52.546;13.348;2022-10-22T04:44:41;15.30;99.90
16523;DHT22;19889;52.546;13.348;2022-10-22T04:47:08;15.20;99.90
16523;DHT22;19889;52.546;13.348;2022-10-22T04:49:36;15.20;99.90
16523;DHT22;19889;52.546;13.348;2022-10-22T04:52:03;15.30;99.90
16523;DHT22;19889;52.546;13.348;2022-10-22T04:54:30;15.30;99.90
16523;DHT22;19889;52.546;13.348;2022-10-22T04:56:56;15.30;99.90
16523;DHT22;19889;52.546;13.348;2022-10-22T04:59:23;15.30;99.90
16523;DHT22;19889;52.546;13.348;2022-10-22T05:01:50;15.30;99.90
16523;DHT22;19889;52.546;13.348;2022-10-22T05:04:17;15.30;99.90
16523;DHT22;19889;52.546;13.348;2022-10-22T05:06:46;15.30;99.90
16523;DHT22;19889;52.546;13.348;2022-10-22T05:09:15;15.30;99.90
16523;DHT22;19889;52.546;13.348;2022-10-22T05:11:43;15.30;99.90
16523;DHT22;19889;52.546;13.348;2022-10-22T05:14:13;15.30;99.90
16523;DHT22;19889;52.546;13.348;2022-10-22T05:16:40;15.30;99.90
16523;DHT22;19889;52.546;13.348;2022-10-22T05:19:10;15.40;99.90
16523;DHT22;19889;52.546;13.348;2022-10-22T05:21:39;15.30;99.90
16523;DHT22;19889;52.546;13.348;2022-10-22T05:24:08;15.30;99.90
16523;DHT22;19889;52.546;13.348;2022-10-22T05:26:34;15.30;99.90
16523;DHT22;19889;52.546;13.348;2022-10-22T05:29:01;15.20;99.90
16523;DHT22;19889;52.546;13.348;2022-10-22T05:31:28;15.20;99.90
16523;DHT22;19889;52.546;13.348;2022-10-22T05:33:55;15.20;99.90
16523;DHT22;19889;52.546;13.348;2022-10-22T05:36:22;15.20;99.90
16523;DHT22;19889;52.546;13.348;2022-10-22T05:38:49;15.20;99.90
16523;DHT22;19889;52.546;13.348;2022-10-22T05:41:19;15.20;99.90
16523;DHT22;19889;52.546;13.348;2022-10-22T05:43:47;15.20;99.90
16523;DHT22;19889;52.546;13.348;2022-10-22T05:46:16;15.20;99.90
16523;DHT22;19889;52.546;13.348;2022-10-22T05:48:43;15.20;99.90
16523;DHT22;19889;52.546;13.348;2022-10-22T05:51:11;15.20;99.90
16523;DHT22;19889;52.546;13.348;2022-10-22T05:53:40;15.10;99.90
16523;DHT22;19889;52.546;13.348;2022-10-22T05:56:10;15.10;99.90
16523;DHT22;19889;52.546;13.348;2022-10-22T05:58:39;15.20;99.90
16523;DHT22;19889;52.546;13.348;2022-10-22T06:01:07;15.20;99.90
16523;DHT22;19889;52.546;13.348;2022-10-22T06:03:34;15.10;99.90
16523;DHT22;19889;52.546;13.348;2022-10-22T06:06:05;15.10;99.90
16523;DHT22;19889;52.546;13.348;2022-10-22T06:08:32;15.10;99.90
16523;DHT22;19889;52.546;13.348;2022-10-22T06:10:59;15.20;99.90
16523;DHT22;19889;52.546;13.348;2022-10-22T06:13:26;15.10;99.90
16523;DHT22;19889;52.546;13.348;2022-10-22T06:15:54;15.20;99.90
16523;DHT22;19889;52.546;13.348;2022-10-22T06:18:21;15.20;99.90
16523;DHT22;19889;52.546;13.348;2022-10-22T06:20:48;15.10;99.90
16523;DHT22;19889;52.546;13.348;2022-10-22T06:23:15;15.10;99.90
16523;DHT22;19889;52.546;13.348;2022-10-22T06:25:42;15.10;99.90
16523;DHT22;19889;52.546;13.348;2022-10-22T06:28:08;15.20;99.90
16523;DHT22;19889;52.546;13.348;2022-10-22T06:30:36;15.10;99.90
16523;DHT22;19889;52.546;13.348;2022-10-22T06:33:04;15.20;99.90
16523;DHT22;19889;52.546;13.348;2022-10-22T06:35:31;15.20;99.90
16523;DHT22;19889;52.546;13.348;2022-10-22T06:37:58;15.20;99.90
16523;DHT22;19889;52.546;13.348;2022-10-22T06:40:25;15.20;99.90
16523;DHT22;19889;52.546;13.348;2022-10-22T06:42:51;15.20;99.90
16523;DHT22;19889;52.546;13.348;2022-10-22T06:45:18;15.20;99.90
16523;DHT22;19889;52.546;13.348;2022-10-22T06:47:45;15.20;99.90
16523;DHT22;19889;52.546;13.348;2022-10-22T06:50:13;15.20;99.90
16523;DHT22;19889;52.546;13.348;2022-10-22T06:52:40;15.20;99.90
16523;DHT22;19889;52.546;13.348;2022-10-22T06:55:07;15.20;99.90
16523;DHT22;19889;52.546;13.348;2022-10-22T06:57:34;15.20;99.90
16523;DHT22;19889;52.546;13.348;2022-10-22T07:00:03;15.30;99.90
16523;DHT22;19889;52.546;13.348;2022-10-22T07:02:30;15.30;99.90
16523;DHT22;19889;52.546;13.348;2022-10-22T07:04:57;15.30;99.90
16523;DHT22;19889;52.546;13.348;2022-10-22T07:07:25;15.30;99.90
16523;DHT22;19889;52.546;13.348;2022-10-22T07:09:51;15.30;99.90
16523;DHT22;19889;52.546;13.348;2022-10-22T07:12:18;15.30;99.90
16523;DHT22;19889;52.546;13.348;2022-10-22T07:14:45;15.30;99.90
16523;DHT22;19889;52.546;13.348;2022-10-22T07:17:11;15.30;99.90
16523;DHT22;19889;52.546;13.348;2022-10-22T07:19:38;15.40;99.90
16523;DHT22;19889;52.546;13.348;2022-10-22T07:22:05;15.40;99.90
16523;DHT22;19889;52.546;13.348;2022-10-22T07:24:33;15.40;99.90
16523;DHT22;19889;52.546;13.348;2022-10-22T07:27:00;15.30;99.90
16523;DHT22;19889;52.546;13.348;2022-10-22T07:29:26;15.40;99.90
16523;DHT22;19889;52.546;13.348;2022-10-22T07:31:53;15.40;99.90
16523;DHT22;19889;52.546;13.348;2022-10-22T07:34:20;15.40;99.90
16523;DHT22;19889;52.546;13.348;2022-10-22T07:36:47;15.40;99.90
16523;DHT22;19889;52.546;13.348;2022-10-22T07:39:13;15.40;99.90
16523;DHT22;19889;52.546;13.348;2022-10-22T07:41:42;15.50;99.90
16523;DHT22;19889;52.546;13.348;2022-10-22T07:44:10;15.50;99.90
16523;DHT22;19889;52.546;13.348;2022-10-22T07:46:36;15.40;99.90
16523;DHT22;19889;52.546;13.348;2022-10-22T07:49:03;15.40;99.90
16523;DHT22;19889;52.546;13.348;2022-10-22T07:51:30;15.50;99.90
16523;DHT22;19889;52.546;13.348;2022-10-22T07:53:57;15.50;99.90
16523;DHT22;19889;52.546;13.348;2022-10-22T07:56:23;15.50;99.90
16523;DHT22;19889;52.546;13.348;2022-10-22T07:58:51;15.50;99.90
16523;DHT22;19889;52.546;13.348;2022-10-22T08:01:18;15.50;99.90
16523;DHT22;19889;52.546;13.348;2022-10-22T08:03:45;15.50;99.90
16523;DHT22;19889;52.546;13.348;2022-10-22T08:06:13;15.50;99.90
16523;DHT22;19889;52.546;13.348;2022-10-22T08:08:40;15.60;99.90
16523;DHT22;19889;52.546;13.348;2022-10-22T08:11:09;15.60;99.90
16523;DHT22;19889;52.546;13.348;2022-10-22T08:13:36;15.60;99.90
16523;DHT22;19889;52.546;13.348;2022-10-22T08:16:04;15.60;99.90
16523;DHT22;19889;52.546;13.348;2022-10-22T08:18:31;15.60;99.90
16523;DHT22;19889;52.546;13.348;2022-10-22T08:20:58;15.60;99.90
16523;DHT22;19889;52.546;13.348;2022-10-22T08:23:25;15.60;99.90
16523;DHT22;19889;52.546;13.348;2022-10-22T08:25:52;15.60;99.90
16523;DHT22;19889;52.546;13.348;2022-10-22T08:28:19;15.60;99.90
16523;DHT22;19889;52.546;13.348;2022-10-22T08:30:45;15.60;99.90
16523;DHT22;19889;52.546;13.348;2022-10-22T08:33:14;15.70;99.90
16523;DHT22;19889;52.546;13.348;2022-10-22T08:35:41;15.70;99.90
16523;DHT22;19889;52.546;13.348;2022-10-22T08:38:08;15.70;99.90
16523;DHT22;19889;52.546;13.348;2022-10-22T08:40:37;15.70;99.90
16523;DHT22;19889;52.546;13.348;2022-10-22T08:46:03;15.70;99.90
16523;DHT22;19889;52.546;13.348;2022-10-22T08:48:42;15.70;99.90
16523;DHT22;19889;52.546;13.348;2022-10-22T08:51:12;15.70;99.90
16523;DHT22;19889;52.546;13.348;2022-10-22T08:53:46;15.70;99.90
16523;DHT22;19889;52.546;13.348;2022-10-22T08:56:14;15.80;99.90
16523;DHT22;19889;52.546;13.348;2022-10-22T08:58:47;15.70;99.90
16523;DHT22;19889;52.546;13.348;2022-10-22T09:01:18;15.80;99.90
16523;DHT22;19889;52.546;13.348;2022-10-22T09:03:51;15.80;99.90
16523;DHT22;19889;52.546;13.348;2022-10-22T09:06:22;15.80;99.90
16523;DHT22;19889;52.546;13.348;2022-10-22T09:08:50;15.80;99.90
16523;DHT22;19889;52.546;13.348;2022-10-22T09:11:26;15.90;99.90
16523;DHT22;19889;52.546;13.348;2022-10-22T09:13:54;15.80;99.90
16523;DHT22;19889;52.546;13.348;2022-10-22T09:16:29;15.80;99.90
16523;DHT22;19889;52.546;13.348;2022-10-22T09:19:11;15.80;99.90
16523;DHT22;19889;52.546;13.348;2022-10-22T09:21:50;15.80;99.90
16523;DHT22;19889;52.546;13.348;2022-10-22T09:24:27;15.90;99.90
16523;DHT22;19889;52.546;13.348;2022-10-22T09:26:57;15.90;99.90
16523;DHT22;19889;52.546;13.348;2022-10-22T09:29:30;15.90;99.90
16523;DHT22;19889;52.546;13.348;2022-10-22T09:31:57;15.90;99.90
16523;DHT22;19889;52.546;13.348;2022-10-22T09:34:28;15.90;99.90
16523;DHT22;19889;52.546;13.348;2022-10-22T09:36:56;15.90;99.90
16523;DHT22;19889;52.546;13.348;2022-10-22T09:39:25;15.90;99.90
16523;DHT22;19889;52.546;13.348;2022-10-22T09:41:53;15.90;99.90
16523;DHT22;19889;52.546;13.348;2022-10-22T09:44:20;16.00;99.90
16523;DHT22;19889;52.546;13.348;2022-10-22T09:46:47;16.00;99.90
16523;DHT22;19889;52.546;13.348;2022-10-22T09:49:16;16.00;99.90
16523;DHT22;19889;52.546;13.348;2022-10-22T09:51:52;16.10;99.90
16523;DHT22;19889;52.546;13.348;2022-10-22T09:54:21;16.10;99.90
16523;DHT22;19889;52.546;13.348;2022-10-22T09:56:53;16.10;99.90
16523;DHT22;19889;52.546;13.348;2022-10-22T09:59:27;16.10;99.90
16523;DHT22;19889;52.546;13.348;2022-10-22T10:01:59;16.10;99.90
16523;DHT22;19889;52.546;13.348;2022-10-22T10:04:26;16.20;99.90
16523;DHT22;19889;52.546;13.348;2022-10-22T10:06:55;16.10;99.90
16523;DHT22;19889;52.546;13.348;2022-10-22T10:09:24;16.20;99.90
16523;DHT22;19889;52.546;13.348;2022-10-22T10:11:56;16.20;99.90
16523;DHT22;19889;52.546;13.348;2022-10-22T10:14:32;16.20;99.90
16523;DHT22;19889;52.546;13.348;2022-10-22T10:17:06;16.20;99.90
16523;DHT22;19889;52.546;13.348;2022-10-22T10:19:49;16.20;99.90
16523;DHT22;19889;52.546;13.348;2022-10-22T10:22:29;16.20;99.90
16523;DHT22;19889;52.546;13.348;2022-10-22T10:25:13;16.20;99.90
16523;DHT22;19889;52.546;13.348;2022-10-22T10:27:46;16.20;99.90
16523;DHT22;19889;52.546;13.348;2022-10-22T10:30:19;16.20;99.90
16523;DHT22;19889;52.546;13.348;2022-10-22T10:33:00;16.20;99.90
16523;DHT22;19889;52.546;13.348;2022-10-22T10:35:33;16.20;99.90
16523;DHT22;19889;52.546;13.348;2022-10-22T10:38:15;16.20;99.90
16523;DHT22;19889;52.546;13.348;2022-10-22T10:40:48;16.20;99.90
16523;DHT22;19889;52.546;13.348;2022-10-22T10:43:20;16.20;99.90
16523;DHT22;19889;52.546;13.348;2022-10-22T10:45:55;16.20;99.90
16523;DHT22;19889;52.546;13.348;2022-10-22T10:48:35;16.30;99.90
16523;DHT22;19889;52.546;13.348;2022-10-22T10:51:13;16.30;99.90
16523;DHT22;19889;52.546;13.348;2022-10-22T10:54:03;16.30;99.90
16523;DHT22;19889;52.546;13.348;2022-10-22T10:56:38;16.30;99.90
16523;DHT22;19889;52.546;13.348;2022-10-22T10:59:16;16.30;99.90
16523;DHT22;19889;52.546;13.348;2022-10-22T11:01:55;16.30;99.90
16523;DHT22;19889;52.546;13.348;2022-10-22T11:04:43;16.40;99.90
16523;DHT22;19889;52.546;13.348;2022-10-22T11:07:18;16.40;99.90
16523;DHT22;19889;52.546;13.348;2022-10-22T11:09:53;16.40;99.90
16523;DHT22;19889;52.546;13.348;2022-10-22T11:12:25;16.40;99.90
16523;DHT22;19889;52.546;13.348;2022-10-22T11:14:58;16.50;99.90
16523;DHT22;19889;52.546;13.348;2022-10-22T11:17:32;16.50;99.90
16523;DHT22;19889;52.546;13.348;2022-10-22T11:20:06;16.50;99.90
16523;DHT22;19889;52.546;13.348;2022-10-22T11:22:40;16.50;99.90
16523;DHT22;19889;52.546;13.348;2022-10-22T11:25:17;16.50;99.90
16523;DHT22;19889;52.546;13.348;2022-10-22T11:27:48;16.50;99.90
16523;DHT22;19889;52.546;13.348;2022-10-22T11:30:19;16.50;99.90
16523;DHT22;19889;52.546;13.348;2022-10-22T11:32:49;16.90;99.90
16523;DHT22;19889;52.546;13.348;2022-10-22T11:35:21;16.60;99.90
16523;DHT22;19889;52.546;13.348;2022-10-22T11:37:50;16.70;99.90
16523;DHT22;19889;52.546;13.348;2022-10-22T11:40:21;16.70;99.90
16523;DHT22;19889;52.546;13.348;2022-10-22T11:42:50;16.70;99.90
16523;DHT22;19889;52.546;13.348;2022-10-22T11:45:30;16.70;99.90
16523;DHT22;19889;52.546;13.348;2022-10-22T11:48:04;16.70;99.90
16523;DHT22;19889;52.546;13.348;2022-10-22T11:50:44;16.70;99.90
16523;DHT22;19889;52.546;13.348;2022-10-22T11:53:17;16.70;99.90
16523;DHT22;19889;52.546;13.348;2022-10-22T11:55:48;16.80;99.90
16523;DHT22;19889;52.546;13.348;2022-10-22T11:58:38;16.80;99.90
16523;DHT22;19889;52.546;13.348;2022-10-22T12:01:21;16.80;99.90
16523;DHT22;19889;52.546;13.348;2022-10-22T12:03:49;16.80;99.90
16523;DHT22;19889;52.546;13.348;2022-10-22T12:06:22;16.80;99.90
16523;DHT22;19889;52.546;13.348;2022-10-22T12:08:57;16.80;99.90
16523;DHT22;19889;52.546;13.348;2022-10-22T12:11:28;16.80;99.90
16523;DHT22;19889;52.546;13.348;2022-10-22T12:14:11;16.80;99.90
16523;DHT22;19889;52.546;13.348;2022-10-22T12:16:42;16.90;99.90
16523;DHT22;19889;52.546;13.348;2022-10-22T12:19:13;16.80;99.90
16523;DHT22;19889;52.546;13.348;2022-10-22T12:21:44;16.90;99.90
16523;DHT22;19889;52.546;13.348;2022-10-22T12:24:14;16.90;99.90
16523;DHT22;19889;52.546;13.348;2022-10-22T12:26:43;16.90;99.90
16523;DHT22;19889;52.546;13.348;2022-10-22T12:29:13;16.90;99.90
16523;DHT22;19889;52.546;13.348;2022-10-22T12:31:42;16.90;99.90
16523;DHT22;19889;52.546;13.348;2022-10-22T12:34:14;16.90;99.90
16523;DHT22;19889;52.546;13.348;2022-10-22T12:36:42;16.90;99.90
16523;DHT22;19889;52.546;13.348;2022-10-22T12:39:12;16.90;99.90
16523;DHT22;19889;52.546;13.348;2022-10-22T12:41:39;16.90;99.90
16523;DHT22;19889;52.546;13.348;2022-10-22T12:44:10;17.00;99.90
16523;DHT22;19889;52.546;13.348;2022-10-22T12:46:38;17.00;99.90
16523;DHT22;19889;52.546;13.348;2022-10-22T12:49:10;17.00;99.90
16523;DHT22;19889;52.546;13.348;2022-10-22T12:51:39;17.00;99.90
16523;DHT22;19889;52.546;13.348;2022-10-22T12:54:08;17.00;99.90
16523;DHT22;19889;52.546;13.348;2022-10-22T12:56:36;17.00;99.90
16523;DHT22;19889;52.546;13.348;2022-10-22T12:59:10;17.00;99.90
16523;DHT22;19889;52.546;13.348;2022-10-22T13:01:41;17.00;99.90
16523;DHT22;19889;52.546;13.348;2022-10-22T13:04:19;17.10;99.90
16523;DHT22;19889;52.546;13.348;2022-10-22T13:06:48;17.10;99.90
16523;DHT22;19889;52.546;13.348;2022-10-22T13:09:17;17.10;99.90
16523;DHT22;19889;52.546;13.348;2022-10-22T13:11:50;17.10;99.90
16523;DHT22;19889;52.546;13.348;2022-10-22T13:14:21;17.10;99.90
16523;DHT22;19889;52.546;13.348;2022-10-22T13:17:05;17.10;99.90
16523;DHT22;19889;52.546;13.348;2022-10-22T13:19:38;17.10;99.90
16523;DHT22;19889;52.546;13.348;2022-10-22T13:22:30;17.10;99.90
16523;DHT22;19889;52.546;13.348;2022-10-22T13:25:02;17.10;99.90
16523;DHT22;19889;52.546;13.348;2022-10-22T13:27:30;17.10;99.90
16523;DHT22;19889;52.546;13.348;2022-10-22T13:30:02;17.10;99.90
16523;DHT22;19889;52.546;13.348;2022-10-22T13:32:34;17.10;99.90
16523;DHT22;19889;52.546;13.348;2022-10-22T13:35:02;17.20;99.90
16523;DHT22;19889;52.546;13.348;2022-10-22T13:37:31;17.10;99.90
16523;DHT22;19889;52.546;13.348;2022-10-22T13:39:59;17.20;99.90
16523;DHT22;19889;52.546;13.348;2022-10-22T13:42:25;17.10;99.90
16523;DHT22;19889;52.546;13.348;2022-10-22T13:44:52;17.20;99.90
16523;DHT22;19889;52.546;13.348;2022-10-22T13:47:28;17.20;99.90
16523;DHT22;19889;52.546;13.348;2022-10-22T13:49:57;17.20;99.90
16523;DHT22;19889;52.546;13.348;2022-10-22T13:52:33;17.20;99.90
16523;DHT22;19889;52.546;13.348;2022-10-22T13:55:01;17.20;99.90
16523;DHT22;19889;52.546;13.348;2022-10-22T13:57:27;17.20;99.90
16523;DHT22;19889;52.546;13.348;2022-10-22T13:59:54;17.20;99.90
16523;DHT22;19889;52.546;13.348;2022-10-22T14:02:21;17.30;99.90
16523;DHT22;19889;52.546;13.348;2022-10-22T14:04:50;17.30;99.90
16523;DHT22;19889;52.546;13.348;2022-10-22T14:07:18;17.30;99.90
16523;DHT22;19889;52.546;13.348;2022-10-22T14:09:44;17.30;99.90
16523;DHT22;19889;52.546;13.348;2022-10-22T14:12:12;17.30;99.90
16523;DHT22;19889;52.546;13.348;2022-10-22T14:14:40;17.30;99.90
16523;DHT22;19889;52.546;13.348;2022-10-22T14:17:11;17.30;99.90
16523;DHT22;19889;52.546;13.348;2022-10-22T14:19:40;17.30;99.90
16523;DHT22;19889;52.546;13.348;2022-10-22T14:22:12;17.30;99.90
16523;DHT22;19889;52.546;13.348;2022-10-22T14:24:38;17.30;99.90
16523;DHT22;19889;52.546;13.348;2022-10-22T14:27:05;17.30;99.90
16523;DHT22;19889;52.546;13.348;2022-10-22T14:29:32;17.40;99.90
16523;DHT22;19889;52.546;13.348;2022-10-22T14:31:59;17.30;99.90
16523;DHT22;19889;52.546;13.348;2022-10-22T14:34:25;17.40;99.90
16523;DHT22;19889;52.546;13.348;2022-10-22T14:36:52;17.40;99.90
16523;DHT22;19889;52.546;13.348;2022-10-22T14:39:20;17.40;99.90
16523;DHT22;19889;52.546;13.348;2022-10-22T14:41:47;17.40;99.90
16523;DHT22;19889;52.546;13.348;2022-10-22T14:44:14;17.30;99.90
16523;DHT22;19889;52.546;13.348;2022-10-22T14:46:41;17.40;99.90
16523;DHT22;19889;52.546;13.348;2022-10-22T14:49:08;17.40;99.90
16523;DHT22;19889;52.546;13.348;2022-10-22T14:51:35;17.30;99.90
16523;DHT22;19889;52.546;13.348;2022-10-22T14:54:02;17.40;99.90
16523;DHT22;19889;52.546;13.348;2022-10-22T14:56:30;17.40;99.90
16523;DHT22;19889;52.546;13.348;2022-10-22T14:58:57;17.40;99.90
16523;DHT22;19889;52.546;13.348;2022-10-22T15:01:23;17.40;99.90
16523;DHT22;19889;52.546;13.348;2022-10-22T15:03:50;17.40;99.90
16523;DHT22;19889;52.546;13.348;2022-10-22T15:06:17;17.40;99.90
16523;DHT22;19889;52.546;13.348;2022-10-22T15:08:43;17.40;99.90
16523;DHT22;19889;52.546;13.348;2022-10-22T15:11:11;17.40;99.90
16523;DHT22;19889;52.546;13.348;2022-10-22T15:13:39;17.30;99.90
16523;DHT22;19889;52.546;13.348;2022-10-22T15:16:07;17.30;99.90
16523;DHT22;19889;52.546;13.348;2022-10-22T15:18:34;17.40;99.90
16523;DHT22;19889;52.546;13.348;2022-10-22T15:21:03;17.30;99.90
16523;DHT22;19889;52.546;13.348;2022-10-22T15:23:30;17.30;99.90
16523;DHT22;19889;52.546;13.348;2022-10-22T15:25:57;17.30;99.90
16523;DHT22;19889;52.546;13.348;2022-10-22T15:28:24;17.30;99.90
16523;DHT22;19889;52.546;13.348;2022-10-22T15:30:53;17.30;99.90
16523;DHT22;19889;52.546;13.348;2022-10-22T15:33:20;17.30;99.90